Time;durP1;ratioP1;P1;durP2;ratioP2;P2;SDS_P1;SDS_P2;PMS_P1;PMS_P2;Temp;Humidity;BMP_temperature;BMP_pressure;BME280_temperature;BME280_humidity;BME280_pressure;Samples;Min_cycle;Max_cycle;Signal;HPM_P1;HPM_P2
2022/10/15 00:01:04;;;;;;;81.85;49.10;;;14.20;99.90;;;;;;5072770;28;20044;-49
2022/10/15 00:03:30;;;;;;;73.57;43.88;;;12.00;99.90;;;;;;5073436;28;20071;-51
2022/10/15 00:05:56;;;;;;;81.40;46.63;;;12.10;99.90;;;;;;5071866;28;20122;-45
2022/10/15 00:08:22;;;;;;;77.18;49.70;;;12.20;99.90;;;;;;5070295;28;20105;-50
2022/10/15 00:10:47;;;;;;;80.38;46.70;;;12.10;99.90;;;;;;5072658;28;21348;-47
2022/10/15 00:13:13;;;;;;;76.00;47.10;;;12.20;99.90;;;;;;5073320;28;20109;-50
2022/10/15 00:15:39;;;;;;;72.75;44.53;;;12.10;99.90;;;;;;5072428;28;20047;-51
2022/10/15 00:18:04;;;;;;;79.53;48.90;;;12.10;99.90;;;;;;5070104;28;20047;-50
2022/10/15 00:20:30;;;;;;;76.35;46.67;;;12.10;99.90;;;;;;5072417;28;20392;-51
2022/10/15 00:22:56;;;;;;;78.40;48.83;;;12.10;99.90;;;;;;5071183;28;20044;-50
2022/10/15 00:25:22;;;;;;;80.13;46.83;;;14.40;99.90;;;;;;5072393;28;20047;-50
2022/10/15 00:27:47;;;;;;;78.60;47.58;;;12.20;99.90;;;;;;5072408;28;20075;-48
2022/10/15 00:30:13;;;;;;;82.85;48.70;;;12.10;99.90;;;;;;5073657;28;20126;-47
2022/10/15 00:32:39;;;;;;;81.57;47.08;;;12.20;99.90;;;;;;5070707;28;20039;-50
2022/10/15 00:35:05;;;;;;;88.00;48.78;;;12.10;99.90;;;;;;5071289;28;20093;-46
2022/10/15 00:37:31;;;;;;;71.40;44.28;;;12.10;99.90;;;;;;5071376;28;20040;-46
2022/10/15 00:39:57;;;;;;;77.13;46.08;;;12.10;99.90;;;;;;5072753;28;20404;-49
2022/10/15 00:42:22;;;;;;;75.15;46.65;;;13.30;99.90;;;;;;5072566;28;20032;-47
2022/10/15 00:44:59;;;;;;;79.15;46.80;;;12.10;99.90;;;;;;5073018;28;20035;-47
2022/10/15 00:47:47;;;;;;;75.53;46.50;;;12.30;99.90;;;;;;5072043;28;20657;-49
2022/10/15 00:50:17;;;;;;;81.05;47.88;;;12.00;99.90;;;;;;5071784;28;20036;-48
2022/10/15 00:52:47;;;;;;;80.65;46.47;;;12.20;99.90;;;;;;5069993;28;20040;-50
2022/10/15 00:55:25;;;;;;;75.43;45.42;;;12.80;99.90;;;;;;5072575;28;20067;-49
2022/10/15 00:57:51;;;;;;;73.57;43.92;;;12.10;99.90;;;;;;5073686;28;20044;-48
2022/10/15 01:00:18;;;;;;;71.47;42.50;;;12.10;99.90;;;;;;5073217;28;20051;-49
2022/10/15 01:02:44;;;;;;;71.47;45.40;;;12.30;99.90;;;;;;5072130;28;20048;-48
2022/10/15 01:05:12;;;;;;;77.10;47.38;;;12.20;99.90;;;;;;5069424;28;20045;-47
2022/10/15 01:07:37;;;;;;;71.13;45.38;;;12.30;99.90;;;;;;5071412;28;20396;-47
2022/10/15 01:10:05;;;;;;;78.80;46.65;;;12.20;99.90;;;;;;5068331;28;20044;-52
2022/10/15 01:12:46;;;;;;;73.60;43.65;;;12.10;99.90;;;;;;5068620;28;20042;-47
2022/10/15 01:15:44;;;;;;;73.32;45.55;;;12.10;99.90;;;;;;5070729;28;20093;-49
2022/10/15 01:18:14;;;;;;;76.68;46.53;;;12.10;99.90;;;;;;5070633;28;20043;-48
2022/10/15 01:21:13;;;;;;;85.40;48.15;;;12.00;99.90;;;;;;5069588;28;20500;-49
2022/10/15 01:24:07;;;;;;;70.93;44.40;;;10.30;99.90;;;;;;5068954;28;20032;-52
2022/10/15 01:26:45;;;;;;;89.93;49.00;;;12.60;99.90;;;;;;5069941;28;20450;-49
2022/10/15 01:29:22;;;;;;;79.80;47.33;;;12.10;99.90;;;;;;5070191;28;20037;-50
2022/10/15 01:32:09;;;;;;;77.75;46.20;;;12.00;99.90;;;;;;5070840;28;20294;-49
2022/10/15 01:35:05;;;;;;;92.72;50.22;;;12.00;99.90;;;;;;5070419;28;20080;-48
2022/10/15 01:37:36;;;;;;;89.70;49.03;;;12.10;99.90;;;;;;5071087;28;20093;-50
2022/10/15 01:40:26;;;;;;;81.72;46.60;;;12.10;99.90;;;;;;5070515;28;20040;-50
2022/10/15 01:43:02;;;;;;;78.40;47.45;;;12.00;99.90;;;;;;5070568;28;20595;-51
2022/10/15 01:45:37;;;;;;;78.13;47.45;;;12.00;99.90;;;;;;5069183;28;20048;-50
2022/10/15 01:48:07;;;;;;;80.30;48.95;;;12.10;99.90;;;;;;5069797;28;20032;-47
2022/10/15 01:50:37;;;;;;;86.03;49.30;;;12.00;99.90;;;;;;5070700;28;20123;-48
2022/10/15 01:53:05;;;;;;;78.97;46.58;;;12.00;99.90;;;;;;5069547;28;20048;-49
2022/10/15 01:55:33;;;;;;;90.70;48.60;;;11.90;99.90;;;;;;5068927;28;20418;-50
2022/10/15 01:58:01;;;;;;;88.25;47.35;;;11.90;99.90;;;;;;5068405;28;20169;-50
2022/10/15 02:00:26;;;;;;;82.70;48.35;;;12.20;99.90;;;;;;5070167;28;20056;-48
2022/10/15 02:02:52;;;;;;;77.25;43.78;;;12.20;99.90;;;;;;5069917;28;21203;-49
2022/10/15 02:05:24;;;;;;;77.07;47.45;;;11.90;99.90;;;;;;5070400;28;20044;-51
2022/10/15 02:08:11;;;;;;;79.20;45.28;;;13.00;99.90;;;;;;5069535;28;20413;-49
2022/10/15 02:10:56;;;;;;;76.88;45.65;;;12.00;99.90;;;;;;5070854;28;20055;-48
2022/10/15 02:13:40;;;;;;;80.47;45.72;;;12.00;99.90;;;;;;5068449;28;20044;-50
2022/10/15 02:16:41;;;;;;;79.80;45.45;;;11.90;99.90;;;;;;5070070;28;20063;-51
2022/10/15 02:19:17;;;;;;;79.03;44.67;;;11.80;99.90;;;;;;5052331;28;20067;-50
2022/10/15 02:21:57;;;;;;;79.18;45.25;;;11.90;99.90;;;;;;5070429;28;20480;-49
2022/10/15 02:24:32;;;;;;;80.07;45.88;;;12.20;99.90;;;;;;5069150;28;20048;-51
2022/10/15 02:27:01;;;;;;;78.70;46.08;;;11.90;99.90;;;;;;5068646;28;20402;-49
2022/10/15 02:29:31;;;;;;;81.13;45.58;;;14.00;99.90;;;;;;5070296;28;20040;-52
2022/10/15 02:31:59;;;;;;;73.50;44.63;;;11.80;99.90;;;;;;5068102;28;20082;-49
2022/10/15 02:34:28;;;;;;;74.60;43.92;;;11.80;99.90;;;;;;5069202;28;20528;-51
2022/10/15 02:36:57;;;;;;;68.32;42.50;;;12.00;99.90;;;;;;5069251;28;20579;-50
2022/10/15 02:39:23;;;;;;;73.47;41.47;;;11.90;99.90;;;;;;5068536;28;20181;-50
2022/10/15 02:41:51;;;;;;;72.50;43.15;;;12.90;99.90;;;;;;5070453;28;20040;-47
2022/10/15 02:44:17;;;;;;;70.55;41.13;;;11.90;99.90;;;;;;5069075;28;20051;-50
2022/10/15 02:46:42;;;;;;;67.00;40.65;;;11.90;99.90;;;;;;5070224;28;20044;-50
2022/10/15 02:49:08;;;;;;;75.75;42.15;;;11.90;99.90;;;;;;5068648;28;20409;-46
2022/10/15 02:51:35;;;;;;;72.72;42.10;;;13.90;99.90;;;;;;5068958;28;20044;-50
2022/10/15 02:54:05;;;;;;;86.47;43.72;;;13.90;99.90;;;;;;5069468;28;20040;-46
2022/10/15 02:56:31;;;;;;;73.53;42.38;;;11.90;99.90;;;;;;5068507;28;20052;-52
2022/10/15 02:58:57;;;;;;;83.97;44.60;;;12.70;99.90;;;;;;5070551;28;20086;-49
2022/10/15 03:01:23;;;;;;;75.18;42.50;;;11.90;99.90;;;;;;5067959;28;20419;-49
2022/10/15 03:03:48;;;;;;;88.13;45.30;;;11.30;99.90;;;;;;5067606;28;20066;-47
2022/10/15 03:06:15;;;;;;;76.60;41.08;;;11.80;99.90;;;;;;5069048;28;20044;-49
2022/10/15 03:08:41;;;;;;;76.63;42.38;;;12.60;99.90;;;;;;5070571;28;20044;-48
2022/10/15 03:11:07;;;;;;;82.35;44.75;;;11.80;99.90;;;;;;5070051;28;20079;-51
2022/10/15 03:13:40;;;;;;;74.72;42.97;;;13.80;99.90;;;;;;5068668;28;20090;-50
2022/10/15 03:16:07;;;;;;;72.88;41.75;;;11.70;99.90;;;;;;5073223;28;20055;-49
2022/10/15 03:18:33;;;;;;;76.15;44.50;;;11.70;99.90;;;;;;5074105;28;20131;-49
2022/10/15 03:20:59;;;;;;;78.03;43.00;;;11.70;99.90;;;;;;5072921;28;20768;-50
2022/10/15 03:23:25;;;;;;;72.45;41.67;;;11.80;99.90;;;;;;5075269;28;20142;-51
2022/10/15 03:25:51;;;;;;;80.05;43.85;;;11.70;99.90;;;;;;5072940;28;20044;-50
2022/10/15 03:28:17;;;;;;;71.57;42.75;;;13.60;99.90;;;;;;5072959;28;20554;-51
2022/10/15 03:30:43;;;;;;;73.18;41.08;;;12.40;99.90;;;;;;5075330;28;20047;-48
2022/10/15 03:33:09;;;;;;;68.50;42.13;;;12.30;99.90;;;;;;5074276;28;20105;-51
2022/10/15 03:35:35;;;;;;;61.42;37.92;;;11.60;99.90;;;;;;5073297;28;20040;-47
2022/10/15 03:38:01;;;;;;;69.25;40.10;;;11.80;99.90;;;;;;5074337;28;20032;-49
2022/10/15 03:40:26;;;;;;;67.68;40.60;;;11.70;99.90;;;;;;5075578;28;20528;-47
2022/10/15 03:42:52;;;;;;;68.55;39.35;;;11.80;99.90;;;;;;5074472;28;20047;-46
2022/10/15 03:45:22;;;;;;;65.20;38.63;;;11.80;99.90;;;;;;5073599;28;20044;-51
2022/10/15 03:47:48;;;;;;;68.72;39.90;;;11.80;99.90;;;;;;5072354;28;20044;-46
2022/10/15 03:50:14;;;;;;;74.32;41.00;;;11.70;99.90;;;;;;5073898;28;20400;-50
2022/10/15 03:52:40;;;;;;;68.43;40.22;;;11.80;99.90;;;;;;5072288;28;20079;-48
2022/10/15 03:55:06;;;;;;;73.10;42.78;;;13.20;99.90;;;;;;5071624;28;20063;-51
2022/10/15 03:57:32;;;;;;;77.20;42.97;;;11.90;99.90;;;;;;5072144;28;21058;-49
2022/10/15 03:59:58;;;;;;;74.57;43.25;;;11.90;99.90;;;;;;5073333;28;20055;-47
2022/10/15 04:02:24;;;;;;;71.28;42.17;;;11.70;99.90;;;;;;5072214;28;20312;-45
2022/10/15 04:04:53;;;;;;;71.82;42.72;;;11.70;99.90;;;;;;5072362;28;20048;-48
2022/10/15 04:07:22;;;;;;;85.70;46.17;;;12.30;99.90;;;;;;5071344;28;20140;-48
2022/10/15 04:09:48;;;;;;;80.28;42.70;;;11.80;99.90;;;;;;5070825;28;20040;-46
2022/10/15 04:12:14;;;;;;;84.10;43.20;;;11.70;99.90;;;;;;5071555;28;20063;-47
2022/10/15 04:14:40;;;;;;;88.50;45.35;;;11.80;99.90;;;;;;5071331;28;20067;-46
2022/10/15 04:17:06;;;;;;;91.63;46.20;;;11.90;99.90;;;;;;5071775;28;20144;-46
2022/10/15 04:19:32;;;;;;;85.63;44.88;;;11.60;99.90;;;;;;5074135;28;20051;-50
2022/10/15 04:21:58;;;;;;;108.07;48.30;;;11.70;99.90;;;;;;5071206;28;20042;-48
2022/10/15 04:24:24;;;;;;;105.35;48.83;;;11.90;99.90;;;;;;5070648;28;20048;-46
2022/10/15 04:26:50;;;;;;;92.38;45.75;;;10.00;99.90;;;;;;5070539;28;20531;-49
2022/10/15 04:29:16;;;;;;;110.95;49.70;;;11.80;99.90;;;;;;5072240;28;20135;-47
2022/10/15 04:31:42;;;;;;;114.35;50.30;;;11.80;99.90;;;;;;5072770;28;20048;-47
2022/10/15 04:34:08;;;;;;;104.72;50.00;;;11.70;99.90;;;;;;5071973;28;20097;-49
2022/10/15 04:36:34;;;;;;;101.25;49.80;;;11.90;99.90;;;;;;5072710;28;20126;-46
2022/10/15 04:39:00;;;;;;;117.63;51.17;;;11.80;99.90;;;;;;5074266;28;21967;-50
2022/10/15 04:41:26;;;;;;;114.45;49.47;;;11.80;99.90;;;;;;5072551;28;20032;-48
2022/10/15 04:43:52;;;;;;;93.13;47.08;;;11.70;99.90;;;;;;5073399;28;20050;-48
2022/10/15 04:46:21;;;;;;;115.38;49.55;;;11.80;99.90;;;;;;5071762;28;20117;-47
2022/10/15 04:48:47;;;;;;;96.93;47.63;;;11.80;99.90;;;;;;5072870;28;20062;-45
2022/10/15 04:51:18;;;;;;;93.47;47.40;;;11.80;99.90;;;;;;5073972;28;20048;-47
2022/10/15 04:53:44;;;;;;;85.23;44.93;;;11.70;99.90;;;;;;5073369;28;20052;-46
2022/10/15 04:56:14;;;;;;;112.72;49.05;;;11.70;99.90;;;;;;5072857;28;20691;-48
2022/10/15 04:58:41;;;;;;;106.32;48.20;;;12.90;99.90;;;;;;5073493;28;20856;-47
2022/10/15 05:01:12;;;;;;;107.05;47.35;;;11.80;99.90;;;;;;5072759;28;20315;-51
2022/10/15 05:03:39;;;;;;;102.97;47.97;;;11.70;99.90;;;;;;5072358;28;20044;-50
2022/10/15 05:06:20;;;;;;;107.32;47.35;;;13.20;99.90;;;;;;5070540;28;20104;-48
2022/10/15 05:08:47;;;;;;;104.57;46.90;;;11.50;99.90;;;;;;5072235;28;20819;-49
2022/10/15 05:11:16;;;;;;;96.32;46.08;;;11.50;99.90;;;;;;5070566;28;20508;-50
2022/10/15 05:13:42;;;;;;;110.47;46.95;;;11.60;99.90;;;;;;5070911;28;20485;-49
2022/10/15 05:16:16;;;;;;;101.57;47.88;;;11.50;99.90;;;;;;5070478;28;20556;-46
2022/10/15 05:18:43;;;;;;;101.07;47.55;;;11.60;99.90;;;;;;5070941;28;20074;-48
2022/10/15 05:21:09;;;;;;;108.53;47.63;;;11.60;99.90;;;;;;5070168;28;20540;-46
2022/10/15 05:23:36;;;;;;;96.95;46.80;;;11.60;99.90;;;;;;5070399;28;20056;-45
2022/10/15 05:26:04;;;;;;;87.93;46.25;;;11.70;99.90;;;;;;5071263;28;20040;-46
2022/10/15 05:28:30;;;;;;;92.63;48.50;;;11.50;99.90;;;;;;5071842;28;20051;-47
2022/10/15 05:31:02;;;;;;;99.03;49.28;;;11.50;99.90;;;;;;5069732;28;20048;-45
2022/10/15 05:33:28;;;;;;;109.40;51.33;;;11.60;99.90;;;;;;5069785;28;20071;-49
2022/10/15 05:35:53;;;;;;;117.47;51.08;;;11.50;99.90;;;;;;5069491;28;20130;-49
2022/10/15 05:38:19;;;;;;;96.97;48.45;;;11.50;99.90;;;;;;5070356;28;20051;-49
2022/10/15 05:40:48;;;;;;;112.15;52.40;;;11.60;99.90;;;;;;5070148;28;20051;-47
2022/10/15 05:43:14;;;;;;;118.85;54.08;;;11.40;99.90;;;;;;5071215;28;20127;-47
2022/10/15 05:45:40;;;;;;;107.25;52.55;;;11.40;99.90;;;;;;5069247;28;20089;-49
2022/10/15 05:48:06;;;;;;;109.10;52.92;;;11.40;99.90;;;;;;5070060;28;20064;-47
2022/10/15 05:50:32;;;;;;;120.13;54.45;;;11.60;99.90;;;;;;5071552;28;20044;-49
2022/10/15 05:52:58;;;;;;;122.93;54.75;;;11.40;99.90;;;;;;5071707;28;20035;-51
2022/10/15 05:55:23;;;;;;;131.52;55.97;;;11.40;99.90;;;;;;5070810;28;20047;-46
2022/10/15 05:57:49;;;;;;;133.75;59.20;;;11.20;99.90;;;;;;5072949;28;20042;-48
2022/10/15 06:00:15;;;;;;;134.75;58.10;;;11.40;99.90;;;;;;5071153;28;20066;-49
2022/10/15 06:02:41;;;;;;;142.40;58.58;;;11.40;99.90;;;;;;5069372;28;20491;-45
2022/10/15 06:05:07;;;;;;;133.65;58.67;;;11.90;99.90;;;;;;5070647;28;20115;-49
2022/10/15 06:07:32;;;;;;;143.13;60.30;;;11.50;99.90;;;;;;5071506;28;20044;-47
2022/10/15 06:09:58;;;;;;;136.20;59.10;;;12.60;99.90;;;;;;5070513;28;20043;-48
2022/10/15 06:12:24;;;;;;;149.77;62.60;;;12.50;99.90;;;;;;5071944;28;20032;-48
2022/10/15 06:14:49;;;;;;;143.90;60.47;;;11.60;99.90;;;;;;5071764;28;20523;-44
2022/10/15 06:17:15;;;;;;;163.82;65.97;;;12.10;99.90;;;;;;5068880;28;20404;-46
2022/10/15 06:19:41;;;;;;;150.70;63.00;;;11.50;99.90;;;;;;5068805;28;20401;-46
2022/10/15 06:22:06;;;;;;;132.20;61.65;;;11.40;99.90;;;;;;5068615;28;20033;-51
2022/10/15 06:24:32;;;;;;;164.38;64.75;;;11.60;99.90;;;;;;5067887;28;20315;-47
2022/10/15 06:26:58;;;;;;;145.90;64.07;;;11.40;99.90;;;;;;5069571;28;20074;-46
2022/10/15 06:29:24;;;;;;;159.63;67.13;;;12.40;99.90;;;;;;5068568;28;20040;-49
2022/10/15 06:31:50;;;;;;;137.98;61.10;;;11.50;99.90;;;;;;5070619;28;20040;-50
2022/10/15 06:34:16;;;;;;;151.60;63.08;;;11.60;99.90;;;;;;5070004;28;20051;-48
2022/10/15 06:36:41;;;;;;;141.48;64.93;;;11.40;99.90;;;;;;5067817;28;20044;-47
2022/10/15 06:39:07;;;;;;;140.40;62.38;;;11.50;99.90;;;;;;5068740;28;20404;-49
2022/10/15 06:41:33;;;;;;;151.55;61.08;;;11.50;99.90;;;;;;5070005;28;20089;-48
2022/10/15 06:43:58;;;;;;;138.52;62.03;;;11.50;99.90;;;;;;5069149;28;20040;-48
2022/10/15 06:46:24;;;;;;;143.60;64.40;;;11.50;99.90;;;;;;5067916;28;20110;-51
2022/10/15 06:48:50;;;;;;;129.98;59.50;;;11.60;99.90;;;;;;5067946;28;20703;-47
2022/10/15 06:51:16;;;;;;;138.45;61.97;;;12.90;99.90;;;;;;5069850;28;20040;-50
2022/10/15 06:53:42;;;;;;;141.85;63.60;;;11.60;99.90;;;;;;5068170;28;20055;-48
2022/10/15 06:56:08;;;;;;;141.23;61.25;;;12.90;99.90;;;;;;5069032;28;20055;-47
2022/10/15 06:58:34;;;;;;;131.00;60.22;;;11.60;99.90;;;;;;5067920;28;20048;-46
2022/10/15 07:01:05;;;;;;;138.13;63.58;;;11.70;99.90;;;;;;5070086;28;20059;-46
2022/10/15 07:03:31;;;;;;;143.77;63.00;;;11.80;99.90;;;;;;5070558;28;20085;-47
2022/10/15 07:06:02;;;;;;;141.23;62.75;;;12.30;99.90;;;;;;5067975;28;20044;-45
2022/10/15 07:08:28;;;;;;;146.48;65.45;;;11.70;99.90;;;;;;5070266;28;20035;-46
2022/10/15 07:10:53;;;;;;;154.20;64.03;;;11.70;99.90;;;;;;5069505;28;20055;-48
2022/10/15 07:13:19;;;;;;;139.98;62.17;;;11.80;99.90;;;;;;5070717;28;20498;-45
2022/10/15 07:15:46;;;;;;;159.45;65.65;;;11.70;99.90;;;;;;5069699;28;20055;-46
2022/10/15 07:18:11;;;;;;;155.20;64.85;;;11.80;99.90;;;;;;5069782;28;20054;-49
2022/10/15 07:20:37;;;;;;;153.95;64.75;;;11.80;99.90;;;;;;5070235;28;20036;-48
2022/10/15 07:23:03;;;;;;;156.77;65.75;;;11.90;99.90;;;;;;5069760;28;20067;-45
2022/10/15 07:25:29;;;;;;;141.35;62.25;;;11.90;99.90;;;;;;5069947;28;20037;-46
2022/10/15 07:27:56;;;;;;;141.40;62.85;;;11.90;99.90;;;;;;5069627;28;20067;-45
2022/10/15 07:30:26;;;;;;;150.32;63.75;;;12.00;99.90;;;;;;5070059;28;20032;-45
2022/10/15 07:32:52;;;;;;;154.65;65.10;;;12.10;99.90;;;;;;5070030;28;20130;-46
2022/10/15 07:35:17;;;;;;;147.95;63.78;;;11.90;99.90;;;;;;5069859;28;20052;-45
2022/10/15 07:37:43;;;;;;;144.73;61.63;;;12.20;99.90;;;;;;5067856;28;20082;-48
2022/10/15 07:40:09;;;;;;;134.23;63.75;;;13.30;99.90;;;;;;5068887;28;20497;-45
2022/10/15 07:42:35;;;;;;;131.70;60.85;;;12.10;99.90;;;;;;5068301;28;20440;-45
2022/10/15 07:45:01;;;;;;;126.40;60.38;;;13.30;99.90;;;;;;5070213;28;20040;-46
2022/10/15 07:47:26;;;;;;;121.82;58.20;;;12.10;99.90;;;;;;5068666;28;20528;-46
2022/10/15 07:49:52;;;;;;;134.07;61.63;;;12.20;99.90;;;;;;5068498;28;20052;-49
2022/10/15 07:52:18;;;;;;;112.75;58.15;;;12.30;99.90;;;;;;5067146;28;20039;-46
2022/10/15 07:54:43;;;;;;;120.80;59.33;;;13.00;99.90;;;;;;5069027;28;20056;-45
2022/10/15 07:57:09;;;;;;;122.05;58.88;;;12.30;99.90;;;;;;5069316;28;20044;-46
2022/10/15 07:59:35;;;;;;;115.75;59.67;;;12.30;99.90;;;;;;5066639;28;20044;-46
2022/10/15 08:02:00;;;;;;;123.97;57.55;;;10.40;99.90;;;;;;5067329;28;20051;-47
2022/10/15 08:04:26;;;;;;;110.97;57.22;;;12.40;99.90;;;;;;5071544;28;20067;-50
2022/10/15 08:06:52;;;;;;;116.38;57.25;;;12.20;99.90;;;;;;5071739;28;20378;-46
2022/10/15 08:09:18;;;;;;;135.50;61.08;;;12.50;99.90;;;;;;5070871;28;20495;-49
2022/10/15 08:11:44;;;;;;;118.32;59.15;;;12.40;99.90;;;;;;5073111;28;20036;-47
2022/10/15 08:14:09;;;;;;;132.27;62.28;;;12.50;99.90;;;;;;5073127;28;24535;-47
2022/10/15 08:16:35;;;;;;;105.75;54.97;;;12.60;99.90;;;;;;5073230;28;20047;-49
2022/10/15 08:19:01;;;;;;;105.82;54.45;;;12.80;99.90;;;;;;5072710;28;20111;-45
2022/10/15 08:21:27;;;;;;;121.00;58.58;;;12.50;99.90;;;;;;5072319;28;20123;-45
2022/10/15 08:23:52;;;;;;;119.95;60.58;;;12.50;99.90;;;;;;5073784;28;21196;-45
2022/10/15 08:26:18;;;;;;;105.90;55.53;;;12.60;99.90;;;;;;5072608;28;20066;-45
2022/10/15 08:28:44;;;;;;;109.60;57.05;;;12.60;99.90;;;;;;5071850;28;20048;-49
2022/10/15 08:31:10;;;;;;;97.55;52.80;;;12.70;99.90;;;;;;5073885;28;20048;-45
2022/10/15 08:33:37;;;;;;;120.53;57.65;;;12.60;99.90;;;;;;5072883;28;20036;-47
2022/10/15 08:36:06;;;;;;;119.25;59.28;;;12.60;99.90;;;;;;5072491;28;20101;-47
2022/10/15 08:38:33;;;;;;;121.95;59.45;;;12.60;99.90;;;;;;5072726;28;20056;-46
2022/10/15 08:41:01;;;;;;;107.85;56.38;;;12.70;99.90;;;;;;5073136;28;20044;-46
2022/10/15 08:43:38;;;;;;;96.78;52.75;;;12.50;99.90;;;;;;5074589;28;20411;-47
2022/10/15 08:46:11;;;;;;;97.53;53.85;;;12.70;99.90;;;;;;5073353;28;20047;-46
2022/10/15 08:48:50;;;;;;;94.57;53.00;;;12.90;99.90;;;;;;5071796;28;20052;-46
2022/10/15 08:51:22;;;;;;;105.78;55.20;;;12.70;99.90;;;;;;5073378;28;20044;-46
2022/10/15 08:53:52;;;;;;;94.70;53.25;;;12.70;99.90;;;;;;5072381;28;20099;-46
2022/10/15 08:56:26;;;;;;;92.30;52.70;;;13.50;99.90;;;;;;5071751;28;20040;-47
2022/10/15 08:59:00;;;;;;;82.53;45.15;;;13.00;99.90;;;;;;5070030;28;20058;-47
2022/10/15 09:01:36;;;;;;;76.57;42.20;;;12.90;99.90;;;;;;5070686;28;20056;-47
2022/10/15 09:04:31;;;;;;;80.35;44.42;;;12.90;99.90;;;;;;5069920;28;20048;-46
2022/10/15 09:07:28;;;;;;;82.43;45.03;;;12.80;99.90;;;;;;5068875;28;20093;-47
2022/10/15 09:10:03;;;;;;;85.30;46.35;;;13.00;99.90;;;;;;5070428;28;20047;-46
2022/10/15 09:12:35;;;;;;;84.93;46.65;;;14.50;99.90;;;;;;5072546;28;20578;-50
2022/10/15 09:15:03;;;;;;;72.05;43.90;;;12.90;99.90;;;;;;5072599;28;20690;-46
2022/10/15 09:17:31;;;;;;;83.10;47.60;;;13.10;99.90;;;;;;5071416;28;20048;-46
2022/10/15 09:19:59;;;;;;;82.78;46.15;;;13.00;99.90;;;;;;5069316;28;20117;-49
2022/10/15 09:22:28;;;;;;;89.95;50.30;;;12.80;99.90;;;;;;5069593;28;20051;-47
2022/10/15 09:24:54;;;;;;;89.60;50.83;;;13.70;99.90;;;;;;5070236;28;20607;-47
2022/10/15 09:27:38;;;;;;;95.28;49.83;;;12.90;99.90;;;;;;5068591;28;20677;-48
2022/10/15 09:30:04;;;;;;;99.72;51.05;;;13.30;99.90;;;;;;5071165;28;20134;-48
2022/10/15 09:32:30;;;;;;;98.40;49.70;;;12.80;99.90;;;;;;5070595;28;20088;-47
2022/10/15 09:35:18;;;;;;;88.70;46.65;;;12.90;99.90;;;;;;5071032;28;20108;-47
2022/10/15 09:38:00;;;;;;;86.22;47.25;;;12.90;99.90;;;;;;5069566;28;20801;-49
2022/10/15 09:40:32;;;;;;;82.03;44.33;;;13.00;99.90;;;;;;5071869;28;20033;-46
2022/10/15 09:43:00;;;;;;;65.22;40.55;;;12.70;99.90;;;;;;5072291;28;20048;-46
2022/10/15 09:45:26;;;;;;;69.57;40.47;;;12.90;99.90;;;;;;5073684;28;20046;-46
2022/10/15 09:47:56;;;;;;;73.00;40.50;;;13.00;99.90;;;;;;5072665;28;20039;-45
2022/10/15 09:50:24;;;;;;;66.88;38.80;;;12.90;99.90;;;;;;5070343;28;20124;-47
2022/10/15 09:53:12;;;;;;;68.82;39.10;;;12.80;99.90;;;;;;5071987;28;20040;-46
2022/10/15 09:55:44;;;;;;;67.15;39.47;;;13.00;99.90;;;;;;5071753;28;20060;-47
2022/10/15 09:58:19;;;;;;;70.25;39.25;;;12.80;99.90;;;;;;5070564;28;20052;-50
2022/10/15 10:00:54;;;;;;;73.57;40.97;;;12.80;99.90;;;;;;5069486;28;20143;-51
2022/10/15 10:03:23;;;;;;;75.07;38.80;;;13.70;99.90;;;;;;5072332;28;20075;-45
2022/10/15 10:05:50;;;;;;;80.00;41.78;;;13.00;99.90;;;;;;5070376;28;20771;-46
2022/10/15 10:08:23;;;;;;;71.15;37.58;;;12.70;99.90;;;;;;5070798;28;20160;-47
2022/10/15 10:10:59;;;;;;;67.20;34.95;;;12.70;99.90;;;;;;5068760;28;20052;-46
2022/10/15 10:13:33;;;;;;;66.10;34.35;;;10.80;99.90;;;;;;5067182;28;20672;-50
2022/10/15 10:16:05;;;;;;;58.50;33.00;;;12.80;99.90;;;;;;5069455;28;20078;-45
2022/10/15 10:18:32;;;;;;;52.70;30.98;;;12.90;99.90;;;;;;5069271;28;20052;-46
2022/10/15 10:21:21;;;;;;;57.38;32.83;;;13.00;99.90;;;;;;5070987;28;20051;-45
2022/10/15 10:23:47;;;;;;;55.83;31.88;;;13.10;99.90;;;;;;5067480;28;20048;-47
2022/10/15 10:26:13;;;;;;;51.58;31.10;;;13.10;99.90;;;;;;5068424;28;20028;-45
2022/10/15 10:28:49;;;;;;;51.30;28.70;;;13.00;99.90;;;;;;5068230;28;20051;-46
2022/10/15 10:31:15;;;;;;;49.33;29.80;;;13.10;99.90;;;;;;5069472;28;20051;-46
2022/10/15 10:33:46;;;;;;;44.58;28.35;;;13.10;99.90;;;;;;5069880;28;20048;-47
2022/10/15 10:36:27;;;;;;;43.10;27.63;;;13.10;99.90;;;;;;5069672;28;20129;-50
2022/10/15 10:39:14;;;;;;;46.30;27.05;;;13.10;99.90;;;;;;5070662;28;20416;-46
2022/10/15 10:42:02;;;;;;;39.58;25.38;;;13.30;99.90;;;;;;5069242;28;20040;-50
2022/10/15 10:44:40;;;;;;;42.88;25.67;;;13.40;99.90;;;;;;5067918;28;20048;-48
2022/10/15 10:47:10;;;;;;;36.45;23.77;;;13.60;99.90;;;;;;5070623;28;20036;-45
2022/10/15 10:49:41;;;;;;;38.28;25.00;;;13.70;99.90;;;;;;5069811;28;20044;-50
2022/10/15 10:52:18;;;;;;;35.47;22.23;;;13.70;99.90;;;;;;5070710;28;20436;-48
2022/10/15 10:54:45;;;;;;;32.13;22.38;;;13.80;99.90;;;;;;5068734;28;20081;-47
2022/10/15 10:57:14;;;;;;;26.67;18.65;;;13.80;99.90;;;;;;5070596;28;20404;-47
2022/10/15 10:59:50;;;;;;;27.52;20.20;;;13.70;99.90;;;;;;5069876;28;20501;-46
2022/10/15 11:02:16;;;;;;;32.40;21.25;;;13.80;99.90;;;;;;5069478;28;20051;-46
2022/10/15 11:04:42;;;;;;;28.10;19.88;;;13.80;99.90;;;;;;5069556;28;20041;-46
2022/10/15 11:07:17;;;;;;;25.75;19.38;;;13.80;99.90;;;;;;5070594;28;20316;-45
2022/10/15 11:10:09;;;;;;;24.65;17.67;;;14.40;99.90;;;;;;5069398;28;20055;-46
2022/10/15 11:12:54;;;;;;;25.77;18.08;;;14.10;99.90;;;;;;5069228;28;20035;-49
2022/10/15 11:15:40;;;;;;;23.55;17.08;;;14.20;99.90;;;;;;5070564;28;20032;-46
2022/10/15 11:18:40;;;;;;;21.00;16.48;;;14.20;99.90;;;;;;5071117;28;20778;-45
2022/10/15 11:21:20;;;;;;;25.60;17.88;;;14.50;99.90;;;;;;5068487;28;20035;-45
2022/10/15 11:24:15;;;;;;;26.52;17.48;;;14.20;99.90;;;;;;5070127;28;20044;-46
2022/10/15 11:27:18;;;;;;;21.02;16.67;;;14.40;99.90;;;;;;5040224;28;20070;-46
2022/10/15 11:30:00;;;;;;;24.75;17.77;;;14.40;99.90;;;;;;5071127;28;20044;-46
2022/10/15 11:32:40;;;;;;;23.08;16.33;;;14.70;99.90;;;;;;5069402;28;20392;-45
2022/10/15 11:35:38;;;;;;;23.25;17.25;;;14.50;99.90;;;;;;5069529;28;21112;-48
2022/10/15 11:38:15;;;;;;;22.05;16.27;;;14.30;99.90;;;;;;5071256;28;20523;-46
2022/10/15 11:41:07;;;;;;;20.63;16.08;;;14.70;99.90;;;;;;5073058;28;20748;-46
2022/10/15 11:43:54;;;;;;;20.17;16.00;;;14.50;99.90;;;;;;5073828;28;20073;-48
2022/10/15 11:46:52;;;;;;;20.67;15.55;;;14.70;99.90;;;;;;5073338;28;20047;-46
2022/10/15 11:49:58;;;;;;;18.25;14.75;;;14.60;99.90;;;;;;5053989;28;20158;-46
2022/10/15 11:52:27;;;;;;;17.67;14.23;;;14.80;99.90;;;;;;5050448;28;20064;-46
2022/10/15 11:55:07;;;;;;;20.40;14.73;;;14.80;99.90;;;;;;5072669;28;20044;-47
2022/10/15 11:57:34;;;;;;;19.55;14.95;;;14.90;99.90;;;;;;5073697;28;20249;-49
2022/10/15 12:00:13;;;;;;;19.02;14.95;;;15.00;99.90;;;;;;5072614;28;20064;-45
2022/10/15 12:02:39;;;;;;;22.48;15.93;;;14.70;99.90;;;;;;5072060;28;20535;-48
2022/10/15 12:05:12;;;;;;;22.70;16.10;;;14.90;99.90;;;;;;5071822;28;20500;-46
2022/10/15 12:07:43;;;;;;;24.35;17.65;;;14.80;99.90;;;;;;5073123;28;20123;-45
2022/10/15 12:10:12;;;;;;;22.77;15.43;;;14.90;99.90;;;;;;5071805;28;20198;-47
2022/10/15 12:13:07;;;;;;;22.92;17.02;;;14.70;99.90;;;;;;5072656;28;20039;-46
2022/10/15 12:15:54;;;;;;;25.55;17.02;;;14.90;99.90;;;;;;5072130;28;20129;-45
2022/10/15 12:18:44;;;;;;;23.17;17.77;;;15.00;99.90;;;;;;5071493;28;20032;-46
2022/10/15 12:21:59;;;;;;;22.77;16.75;;;14.70;99.90;;;;;;5072622;28;20117;-47
2022/10/15 12:24:37;;;;;;;22.90;17.77;;;14.70;99.90;;;;;;5059650;28;20060;-44
2022/10/15 12:27:18;;;;;;;21.25;17.42;;;14.70;99.90;;;;;;5070878;28;20059;-47
2022/10/15 12:30:18;;;;;;;22.27;17.50;;;14.70;99.90;;;;;;5071918;28;20040;-47
2022/10/15 12:32:47;;;;;;;22.48;17.13;;;14.80;99.90;;;;;;5058345;28;20056;-48
2022/10/15 12:35:23;;;;;;;21.23;16.23;;;14.70;99.90;;;;;;5073326;28;20040;-45
2022/10/15 12:37:49;;;;;;;21.42;15.98;;;14.60;99.90;;;;;;5072116;28;20043;-44
2022/10/15 12:40:24;;;;;;;21.40;16.48;;;14.70;99.90;;;;;;5071689;28;20040;-46
2022/10/15 12:43:01;;;;;;;25.20;17.08;;;14.70;99.90;;;;;;5072001;28;20054;-45